Old Glory, Texas
Current Conditions -  °F | °C
As of 11:58 AM on Friday 19 Dec 2014 (Local Time) from KDYS Reporting Station
Overcast Overcast  
Wind Chill: 45°   Ceiling: 1200
Heat Index: 45°   Visibility: 10mi
Dew Point: 39°   Wind: 3mph
Humidity: 79%   Direction: 350°N
Pressure: 30.18"   Gusts: NA
Location:  33.13°N, 100.06°W
Report Text: KDYS 191758Z AUTO 35003KT 10SM OVC012 07/04 A3018 RMK AO2 SLP220 T00730039 10074 20056 50002 $
Loading
Personal Weather Stations






























Interactive Weather Map New forecast layout! Learn more

10-Day Weather Forecast

Advertisements
Track Severe Weather on mobile